Time;durP1;ratioP1;P1;durP2;ratioP2;P2;SDS_P1;SDS_P2;PMS_P1;PMS_P2;Temp;Humidity;BMP_temperature;BMP_pressure;BME280_temperature;BME280_humidity;BME280_pressure;Samples;Min_cycle;Max_cycle;Signal;HPM_P1;HPM_P2
2022/06/13 05:30:17;;;;;;;3.20;0.82;;;;;;;16.13;60.45;102237.91;5073872;27;97072;-34
2022/06/13 05:32:43;;;;;;;0.75;0.50;;;;;;;16.12;60.84;102232.56;5077052;27;99552;-34
2022/06/13 05:35:15;;;;;;;0.90;0.50;;;;;;;16.21;60.78;102244.75;5059180;27;96636;-34
2022/06/13 05:37:41;;;;;;;;;;;;;;;16.23;60.67;102245.53;5059415;27;96911;-34
2022/06/13 05:40:12;;;;;;;2.15;0.70;;;;;;;16.19;60.42;102238.53;5057958;27;100852;-35
2022/06/13 05:42:38;;;;;;;0.60;0.40;;;;;;;16.10;60.50;102235.38;5057438;27;100734;-35
2022/06/13 05:45:03;;;;;;;1.55;0.65;;;;;;;16.14;60.32;102252.50;5075664;27;112591;-34
2022/06/13 05:47:28;;;;;;;4.53;0.52;;;;;;;16.24;60.14;102252.78;5077493;27;96903;-35
2022/06/13 05:49:54;;;;;;;3.60;0.80;;;;;;;16.32;59.91;102250.44;5077220;27;99654;-35
2022/06/13 05:52:19;;;;;;;1.38;0.45;;;;;;;16.38;59.53;102262.88;5077340;27;97815;-34
2022/06/13 05:54:44;;;;;;;4.78;0.68;;;;;;;16.45;59.43;102256.03;5077157;27;98317;-34
2022/06/13 05:57:10;;;;;;;6.95;0.45;;;;;;;16.56;59.42;102264.41;5077549;27;96835;-34
2022/06/13 05:59:35;;;;;;;0.88;0.40;;;;;;;16.69;59.37;102268.13;5057220;27;100858;-34
2022/06/13 06:02:01;;;;;;;2.53;0.57;;;;;;;16.73;59.13;102252.34;5077805;27;97239;-35
2022/06/13 06:04:26;;;;;;;2.83;0.65;;;;;;;16.88;58.83;102264.22;5077115;27;96608;-34
2022/06/13 06:06:52;;;;;;;1.00;0.47;;;;;;;16.84;58.51;102271.72;5077868;27;96641;-35
2022/06/13 06:09:17;;;;;;;0.93;0.30;;;;;;;16.86;58.28;102278.00;5076652;27;97946;-35
2022/06/13 06:11:43;;;;;;;1.50;0.52;;;;;;;16.95;58.59;102279.25;5077097;27;97771;-34
2022/06/13 06:14:08;;;;;;;0.77;0.45;;;;;;;17.06;58.46;102278.53;5077149;27;96800;-35
2022/06/13 06:16:34;;;;;;;0.43;0.22;;;;;;;17.05;58.41;102276.78;5077274;27;96894;-35
2022/06/13 06:18:59;;;;;;;1.05;0.20;;;;;;;16.89;58.31;102275.03;5076768;27;99285;-35
2022/06/13 06:21:25;;;;;;;2.67;0.88;;;;;;;16.89;58.46;102286.00;5076992;27;97599;-34
2022/06/13 06:23:50;;;;;;;0.77;0.32;;;;;;;16.90;58.67;102290.50;5077192;27;96601;-34
2022/06/13 06:26:19;;;;;;;3.00;0.57;;;;;;;16.83;58.60;102291.88;5077499;27;96799;-35
2022/06/13 06:28:45;;;;;;;0.65;0.30;;;;;;;16.87;59.21;102289.81;5058118;27;101106;-34
2022/06/13 06:31:11;;;;;;;2.70;0.68;;;;;;;17.04;58.66;102300.56;5076082;27;97788;-35
2022/06/13 06:33:36;;;;;;;2.83;0.65;;;;;;;16.99;58.39;102291.75;5058112;27;96608;-35
2022/06/13 06:36:03;;;;;;;1.10;0.63;;;;;;;17.06;58.30;102297.69;5076579;27;96935;-35
2022/06/13 06:38:29;;;;;;;1.80;0.70;;;;;;;17.22;57.95;102295.72;5057889;27;100923;-35
2022/06/13 06:40:55;;;;;;;1.00;0.52;;;;;;;17.22;58.31;102294.84;5057913;27;100706;-34
2022/06/13 06:43:20;;;;;;;2.00;0.52;;;;;;;17.38;57.96;102298.31;5076088;27;96488;-34
2022/06/13 06:45:46;;;;;;;2.22;0.85;;;;;;;17.58;57.65;102299.69;5076469;27;96829;-34
2022/06/13 06:48:23;;;;;;;1.13;0.50;;;;;;;17.87;57.15;102305.06;5076535;27;97333;-35
2022/06/13 06:50:49;;;;;;;3.13;0.77;;;;;;;17.86;56.90;102292.38;5058351;27;100949;-34
2022/06/13 06:53:17;;;;;;;2.60;0.63;;;;;;;17.96;56.68;102298.97;5076514;27;96668;-34
2022/06/13 07:01:16;;;;;;;3.08;0.70;;;;;;;17.33;58.13;102309.56;5033150;27;97125;-35
2022/06/13 07:03:43;;;;;;;0.50;0.50;;;;;;;17.12;57.95;102313.75;5057926;27;96834;-34
2022/06/13 07:06:09;;;;;;;1.63;0.50;;;;;;;17.19;57.67;102326.91;5058076;27;96873;-34
2022/06/13 07:08:36;;;;;;;2.90;0.75;;;;;;;17.18;57.51;102324.28;5075789;27;99794;-35
2022/06/13 07:13:48;;;;;;;1.35;0.47;;;;;;;17.65;56.29;102322.09;5076475;27;96926;-35
2022/06/13 07:16:13;;;;;;;1.50;0.38;;;;;;;17.86;55.27;102315.16;5076579;27;96777;-35
2022/06/13 07:18:41;;;;;;;1.15;0.22;;;;;;;18.09;55.06;102316.31;5076039;27;98002;-34
2022/06/13 07:21:07;;;;;;;1.08;0.30;;;;;;;18.29;54.29;102322.25;5057384;27;98844;-34
2022/06/13 07:23:33;;;;;;;1.95;0.30;;;;;;;18.46;54.49;102324.69;5056948;27;97759;-35
2022/06/13 07:25:59;;;;;;;1.42;0.43;;;;;;;18.62;53.84;102319.84;5057699;27;96931;-34
2022/06/13 07:28:24;;;;;;;4.38;0.50;;;;;;;18.66;53.50;102332.38;5075951;27;98112;-35
2022/06/13 07:30:49;;;;;;;1.88;0.40;;;;;;;18.44;54.86;102332.13;5075308;27;97742;-34
2022/06/13 07:33:15;;;;;;;1.63;0.40;;;;;;;18.08;54.62;102328.25;5076233;27;96540;-35
2022/06/13 07:35:40;;;;;;;0.65;0.47;;;;;;;18.29;54.92;102330.50;5075676;27;96878;-35
2022/06/13 07:38:18;;;;;;;1.27;0.38;;;;;;;18.56;54.48;102336.75;5094499;27;97913;-35
2022/06/13 07:40:53;;;;;;;1.08;0.45;;;;;;;18.76;53.63;102343.59;5077162;27;101023;-35
2022/06/13 07:43:28;;;;;;;0.85;0.40;;;;;;;18.59;52.95;102342.03;5096777;27;96561;-34
2022/06/13 07:45:54;;;;;;;0.47;0.40;;;;;;;18.39;54.39;102346.19;5096626;27;96602;-34
2022/06/13 07:48:19;;;;;;;1.20;0.55;;;;;;;18.10;53.80;102355.59;5076984;27;101129;-35
2022/06/13 07:50:45;;;;;;;0.35;0.25;;;;;;;17.94;55.20;102359.38;5095870;27;99254;-34
2022/06/13 07:53:10;;;;;;;3.65;0.88;;;;;;;18.29;54.34;102366.16;5096249;27;96453;-34
2022/06/13 07:55:37;;;;;;;1.08;0.47;;;;;;;18.32;54.87;102364.06;5096484;27;96783;-34
2022/06/13 07:58:03;;;;;;;0.75;0.43;;;;;;;18.08;54.23;102371.25;5095968;27;99446;-34
2022/06/13 08:00:36;;;;;;;4.68;0.57;;;;;;;17.75;54.99;102367.94;5077251;27;100763;-34
2022/06/13 08:03:04;;;;;;;1.35;0.43;;;;;;;17.56;55.94;102367.41;5077386;27;96688;-35
2022/06/13 08:05:30;;;;;;;3.88;0.65;;;;;;;17.74;55.22;102360.72;5077990;27;96818;-34
2022/06/13 08:07:56;;;;;;;0.75;0.40;;;;;;;18.25;54.75;102377.31;5077225;27;101369;-34
2022/06/13 08:10:22;;;;;;;2.17;0.40;;;;;;;18.65;53.57;102370.91;5077079;27;98999;-35
2022/06/13 08:12:48;;;;;;;2.03;0.43;;;;;;;18.56;53.72;102377.03;5076803;27;96638;-34
2022/06/13 08:15:15;;;;;;;1.70;0.50;;;;;;;18.26;54.05;102383.72;5096231;27;96794;-34
2022/06/13 08:17:41;;;;;;;3.45;0.40;;;;;;;18.09;54.76;102381.22;5076861;27;101031;-35
2022/06/13 08:20:10;;;;;;;1.90;0.52;;;;;;;18.02;54.54;102392.66;5095612;27;99103;-35
2022/06/13 08:22:47;;;;;;;3.63;0.50;;;;;;;18.10;54.28;102400.34;5095873;27;96683;-34
2022/06/13 08:25:19;;;;;;;1.60;0.43;;;;;;;18.56;54.55;102388.88;5096253;27;96540;-34
2022/06/13 08:27:45;;;;;;;0.55;0.30;;;;;;;18.59;53.66;102404.25;5095520;27;97620;-35
2022/06/13 08:30:11;;;;;;;2.55;0.22;;;;;;;18.41;53.81;102403.69;5094944;27;103861;-35
2022/06/13 08:32:36;;;;;;;2.45;0.45;;;;;;;18.10;54.06;102405.81;5096050;27;96744;-34
2022/06/13 08:35:01;;;;;;;3.00;0.75;;;;;;;17.91;54.50;102405.31;5095915;27;96810;-35
2022/06/13 08:37:27;;;;;;;2.40;0.30;;;;;;;17.59;55.06;102397.34;5094848;27;99337;-34
2022/06/13 08:39:52;;;;;;;4.78;0.40;;;;;;;17.71;55.10;102404.78;5094908;27;99319;-34
2022/06/13 08:42:29;;;;;;;2.17;0.70;;;;;;;18.15;53.83;102391.78;5095770;27;96567;-34
2022/06/13 08:45:02;;;;;;;1.20;0.75;;;;;;;18.39;53.36;102403.78;5077292;27;96798;-34
2022/06/13 08:47:34;;;;;;;2.97;0.68;;;;;;;18.64;53.25;102416.69;5076700;27;100988;-34
2022/06/13 08:50:28;;;;;;;1.45;0.50;;;;;;;18.66;52.59;102406.47;5095428;27;96909;-34
2022/06/13 08:53:02;;;;;;;2.35;0.35;;;;;;;18.44;53.20;102414.44;5076908;27;96626;-34
2022/06/13 08:55:41;;;;;;;1.80;0.50;;;;;;;18.13;53.77;102422.06;5077396;27;96701;-34
2022/06/13 08:58:33;;;;;;;1.77;0.50;;;;;;;18.03;53.95;102429.16;5076503;27;100820;-35
2022/06/13 09:01:01;;;;;;;5.22;0.70;;;;;;;18.39;54.20;102427.63;5085272;27;99232;-34
2022/06/13 09:03:43;;;;;;;2.72;0.75;;;;;;;18.86;53.17;102431.66;5076082;27;96710;-34
2022/06/13 09:06:14;;;;;;;1.00;0.47;;;;;;;19.26;52.43;102429.66;5076846;27;96758;-34
2022/06/13 09:08:53;;;;;;;0.22;0.20;;;;;;;19.46;51.33;102414.44;5080023;27;101138;-34
2022/06/13 09:11:28;;;;;;;1.55;0.43;;;;;;;19.19;51.95;102432.97;5079969;27;100982;-34
2022/06/13 09:14:11;;;;;;;1.38;0.52;;;;;;;18.79;53.02;102439.47;5080041;27;96824;-35
2022/06/13 09:16:39;;;;;;;0.63;0.38;;;;;;;18.45;53.48;102432.69;5080284;27;96507;-35
2022/06/13 09:19:23;;;;;;;1.33;0.43;;;;;;;18.63;53.22;102436.88;5079769;27;101204;-34
2022/06/13 09:21:52;;;;;;;1.30;0.68;;;;;;;18.96;52.65;102438.25;5080196;27;100652;-34
2022/06/13 09:24:31;;;;;;;2.47;0.55;;;;;;;19.45;51.49;102445.69;5098355;27;96618;-34
2022/06/13 09:27:12;;;;;;;2.53;0.68;;;;;;;19.66;50.50;102434.97;5080112;27;96816;-35
2022/06/13 09:29:40;;;;;;;6.00;0.90;;;;;;;19.42;51.52;102439.50;5079248;27;101007;-35
2022/06/13 09:32:16;;;;;;;1.38;0.40;;;;;;;19.19;52.07;102439.34;5097892;27;103429;-35
2022/06/13 09:34:54;;;;;;;4.82;0.40;;;;;;;18.95;52.59;102450.25;5079834;27;96744;-35
2022/06/13 09:37:37;;;;;;;1.40;0.60;;;;;;;18.75;52.75;102446.09;5098589;27;96591;-34
2022/06/13 09:40:03;;;;;;;2.80;0.63;;;;;;;18.52;52.67;102449.59;5079630;27;100655;-34
2022/06/13 09:42:31;;;;;;;1.30;0.40;;;;;;;18.41;53.30;102469.56;5098262;27;97324;-34
2022/06/13 09:45:08;;;;;;;1.70;0.47;;;;;;;18.19;53.25;102471.03;5098290;27;96504;-35
2022/06/13 09:48:12;;;;;;;2.42;0.50;;;;;;;18.26;52.68;102466.00;5080247;27;96746;-34
2022/06/13 09:51:05;;;;;;;5.07;0.75;;;;;;;18.80;53.09;102476.03;5084582;27;97101;-34
2022/06/13 09:53:36;;;;;;;1.02;0.47;;;;;;;19.08;51.93;102450.22;5079106;27;101083;-35
2022/06/13 09:56:08;;;;;;;2.78;0.73;;;;;;;19.56;51.57;102469.59;5097531;27;96429;-34
2022/06/13 09:58:50;;;;;;;1.90;0.70;;;;;;;19.84;50.58;102467.59;5098409;27;96541;-34
2022/06/13 10:01:45;;;;;;;3.92;0.57;;;;;;;20.01;50.30;102463.56;5098055;27;98011;-34
2022/06/13 10:04:32;;;;;;;2.35;0.70;;;;;;;19.75;49.52;102468.28;5079342;27;100845;-34
2022/06/13 10:07:07;;;;;;;2.67;0.43;;;;;;;19.33;49.97;102478.66;5079408;27;96571;-34
2022/06/13 10:10:03;;;;;;;0.43;0.22;;;;;;;19.56;50.39;102483.34;5097922;27;96838;-34
2022/06/13 10:12:44;;;;;;;0.60;0.45;;;;;;;19.81;50.08;102484.34;5097721;27;98004;-35
2022/06/13 10:15:28;;;;;;;4.30;0.65;;;;;;;19.93;49.38;102477.91;5079348;27;100893;-34
2022/06/13 10:17:59;;;;;;;1.35;0.30;;;;;;;19.80;50.12;102486.19;5097192;27;96627;-34
2022/06/13 10:20:34;;;;;;;2.30;0.70;;;;;;;19.78;49.24;102474.41;5097538;27;96776;-34
2022/06/13 10:23:06;;;;;;;2.75;0.38;;;;;;;19.71;49.86;102496.03;5096947;27;99462;-34
2022/06/13 10:25:46;;;;;;;1.48;0.43;;;;;;;19.45;49.89;102484.16;5097551;27;97296;-34
2022/06/13 10:28:20;;;;;;;1.77;0.30;;;;;;;19.87;48.97;102498.47;5079019;27;96608;-34
2022/06/13 10:30:57;;;;;;;1.58;0.30;;;;;;;20.32;47.96;102489.63;5097147;27;96718;-35
2022/06/13 10:33:38;;;;;;;3.50;0.25;;;;;;;20.24;47.74;102487.47;5078697;27;101336;-35
2022/06/13 10:36:15;;;;;;;0.73;0.30;;;;;;;19.89;48.09;102495.63;5078569;27;100894;-34
2022/06/13 10:38:45;;;;;;;4.10;0.43;;;;;;;19.57;48.78;102506.22;5078590;27;96681;-34
2022/06/13 10:41:11;;;;;;;2.88;0.60;;;;;;;19.80;49.06;102502.69;5097543;27;96695;-35
2022/06/13 10:43:42;;;;;;;0.77;0.38;;;;;;;20.25;47.95;102496.59;5078518;27;100838;-34
2022/06/13 10:46:10;;;;;;;1.57;0.50;;;;;;;20.60;47.52;102493.03;5097007;27;99207;-35
2022/06/13 10:48:43;;;;;;;1.75;0.32;;;;;;;20.87;46.04;102498.25;5078121;27;96582;-34
2022/06/13 10:51:09;;;;;;;1.35;0.30;;;;;;;20.79;46.43;102485.94;5078735;27;96838;-35
2022/06/13 10:53:39;;;;;;;3.35;0.90;;;;;;;20.94;45.54;102481.09;5097186;27;98189;-35
2022/06/13 10:56:11;;;;;;;1.45;0.43;;;;;;;20.80;45.03;102497.84;5078315;27;100911;-34
2022/06/13 10:58:57;;;;;;;3.20;0.57;;;;;;;20.95;45.42;102507.66;5078589;27;96600;-35
2022/06/13 11:01:26;;;;;;;1.58;0.38;;;;;;;21.22;45.29;102500.94;5078430;27;96911;-34
2022/06/13 11:04:19;;;;;;;0.40;0.38;;;;;;;21.48;44.17;102504.38;5078095;27;99007;-35
2022/06/13 11:06:50;;;;;;;1.77;0.65;;;;;;;21.55;45.17;102502.00;5097069;27;99522;-35
2022/06/13 11:09:21;;;;;;;;;;;;;;;21.20;44.21;102513.97;5079007;27;96570;-35
2022/06/13 11:11:46;;;;;;;0.88;0.32;;;;;;;20.90;45.56;102507.13;5097091;27;96898;-35
2022/06/13 11:23:01;;;;;;;3.30;0.70;;;;;;;21.13;43.82;102515.44;5097109;27;96570;-35
2022/06/13 11:25:32;;;;;;;1.77;0.50;;;;;;;21.11;44.92;102522.97;5077856;27;100822;-35
2022/06/13 11:28:07;;;;;;;4.13;0.70;;;;;;;21.24;43.02;102528.34;5077742;27;100943;-35
2022/06/13 11:30:40;;;;;;;4.25;0.63;;;;;;;21.38;43.25;102522.59;5095628;27;96597;-35
2022/06/13 11:33:09;;;;;;;3.17;0.73;;;;;;;21.37;42.73;102535.53;5095992;27;96832;-34
2022/06/13 11:35:45;;;;;;;2.13;0.60;;;;;;;21.54;43.11;102533.31;5095972;27;97687;-35
2022/06/13 11:38:23;;;;;;;5.40;0.75;;;;;;;21.74;41.81;102523.44;5077433;27;99432;-35
2022/06/13 11:41:03;;;;;;;1.65;0.57;;;;;;;21.77;43.26;102518.53;5077417;27;96591;-35
2022/06/13 11:43:41;;;;;;;3.40;0.63;;;;;;;21.99;42.40;102527.78;5096934;27;96890;-35
2022/06/13 11:46:10;;;;;;;3.42;0.70;;;;;;;21.96;42.97;102509.59;5096006;27;99497;-35
2022/06/13 11:48:36;;;;;;;2.08;0.77;;;;;;;21.92;42.28;102508.09;5077373;27;100730;-35
2022/06/13 11:51:05;;;;;;;1.60;0.43;;;;;;;21.81;43.86;102520.03;5078203;27;96546;-35
2022/06/13 11:53:38;;;;;;;4.97;0.80;;;;;;;21.85;42.87;102523.41;5077795;27;96903;-35
2022/06/13 11:56:11;;;;;;;1.35;0.40;;;;;;;22.01;43.48;102529.41;5077354;27;101461;-35
2022/06/13 11:58:41;;;;;;;1.23;0.43;;;;;;;21.40;41.83;102531.66;5096318;27;98961;-35
2022/06/13 12:01:09;;;;;;;5.22;0.63;;;;;;;21.42;43.16;102530.53;5077623;27;96702;-35
2022/06/13 12:03:36;;;;;;;2.40;0.43;;;;;;;21.60;42.95;102511.63;5096289;27;96831;-35
2022/06/13 12:06:15;;;;;;;2.03;0.50;;;;;;;21.91;42.74;102535.81;5076676;27;100989;-35
2022/06/13 12:08:41;;;;;;;1.58;0.65;;;;;;;21.93;42.65;102528.28;5077137;27;100800;-35
2022/06/13 12:11:12;;;;;;;0.40;0.30;;;;;;;21.48;42.57;102534.72;5096054;27;96743;-35
2022/06/13 12:13:42;;;;;;;1.08;0.30;;;;;;;21.07;43.19;102529.72;5096141;27;96828;-35
2022/06/13 12:16:21;;;;;;;0.98;0.38;;;;;;;21.19;42.51;102540.66;5077018;27;101160;-34
2022/06/13 12:19:08;;;;;;;1.20;0.47;;;;;;;21.52;42.53;102532.56;5077254;27;101058;-35
2022/06/13 12:21:40;;;;;;;1.25;0.50;;;;;;;21.57;41.46;102538.56;5095762;27;96637;-35
2022/06/13 12:24:23;;;;;;;2.22;0.80;;;;;;;21.05;41.84;102534.50;5096238;27;96814;-35
2022/06/13 12:27:13;;;;;;;2.13;0.68;;;;;;;20.98;42.60;102543.22;5095795;27;98436;-35
2022/06/13 12:29:44;;;;;;;3.22;0.75;;;;;;;21.06;42.28;102533.47;5095582;27;97855;-35
2022/06/13 12:32:18;;;;;;;4.13;0.60;;;;;;;21.30;42.92;102531.50;5095336;27;96555;-35
2022/06/13 12:35:08;;;;;;;3.15;1.02;;;;;;;21.20;41.79;102542.41;5077119;27;96794;-34
2022/06/13 12:38:02;;;;;;;2.47;0.55;;;;;;;20.75;43.29;102531.25;5095187;27;99289;-35
2022/06/13 12:40:46;;;;;;;1.83;0.50;;;;;;;20.98;44.25;102543.22;5076496;27;100481;-35
2022/06/13 12:43:20;;;;;;;6.70;1.05;;;;;;;21.11;43.18;102540.38;5098693;27;96790;-35
2022/06/13 12:46:22;;;;;;;1.55;0.45;;;;;;;20.94;43.60;102514.16;5099625;27;96534;-35
2022/06/13 12:49:11;;;;;;;1.80;0.40;;;;;;;21.19;42.65;102542.53;5080475;27;101006;-34
2022/06/13 12:51:51;;;;;;;1.85;0.60;;;;;;;21.39;42.50;102540.94;5099344;27;99432;-34
2022/06/13 12:54:49;;;;;;;1.90;0.60;;;;;;;21.49;42.31;102525.41;5080551;27;96578;-34
2022/06/13 12:57:36;;;;;;;2.67;0.63;;;;;;;21.52;42.93;102536.19;5080524;27;96793;-35
2022/06/13 13:00:15;;;;;;;1.75;0.40;;;;;;;21.63;41.34;102536.19;5098211;27;99273;-34
2022/06/13 13:02:46;;;;;;;0.80;0.38;;;;;;;21.70;41.77;102542.09;5098837;27;97745;-35
2022/06/13 13:05:49;;;;;;;3.30;0.87;;;;;;;21.50;40.44;102551.09;5080373;27;96816;-35
2022/06/13 13:08:15;;;;;;;2.50;0.47;;;;;;;21.25;42.04;102544.78;5099238;27;96872;-34
2022/06/13 13:10:58;;;;;;;4.40;0.87;;;;;;;21.38;41.80;102542.81;5098898;27;97507;-35
2022/06/13 13:13:30;;;;;;;2.25;0.52;;;;;;;21.46;42.62;102546.88;5079545;27;100792;-35
2022/06/13 13:16:07;;;;;;;1.00;0.55;;;;;;;21.55;42.31;102546.13;5098941;27;96646;-35
2022/06/13 13:18:43;;;;;;;3.92;0.43;;;;;;;21.42;40.98;102554.50;5080640;27;96781;-34
2022/06/13 13:21:29;;;;;;;2.83;0.60;;;;;;;21.34;41.53;102543.19;5098255;27;99420;-34
2022/06/13 13:24:17;;;;;;;3.85;0.50;;;;;;;21.41;41.80;102538.97;5079631;27;100839;-35
2022/06/13 13:27:00;;;;;;;0.75;0.40;;;;;;;21.42;41.95;102537.94;5079674;27;96701;-35
2022/06/13 13:29:48;;;;;;;3.03;0.55;;;;;;;21.46;41.88;102552.38;5098835;27;96594;-35
2022/06/13 13:32:32;;;;;;;3.47;1.02;;;;;;;21.61;42.03;102538.19;5079602;27;100797;-35
2022/06/13 13:35:22;;;;;;;2.20;0.70;;;;;;;21.56;42.33;102531.31;5098279;27;98750;-35
2022/06/13 13:38:24;;;;;;;2.80;0.55;;;;;;;21.67;42.70;102528.56;5079692;27;96643;-35
2022/06/13 13:41:02;;;;;;;;;;;;;;;21.39;41.49;102550.09;5098641;27;96782;-34
2022/06/13 13:43:31;;;;;;;0.75;0.45;;;;;;;21.21;41.26;102549.69;5097948;27;97637;-35
2022/06/13 13:45:59;;;;;;;1.52;0.38;;;;;;;21.24;41.91;102547.66;5079910;27;100960;-34
2022/06/13 13:48:45;;;;;;;4.72;1.08;;;;;;;21.10;41.92;102552.41;5079594;27;96832;-34
2022/06/13 13:51:23;;;;;;;0.95;0.38;;;;;;;21.05;41.78;102556.53;5078494;27;96764;-35
2022/06/13 13:54:03;;;;;;;4.13;0.60;;;;;;;20.87;41.77;102540.44;5077125;27;100736;-35
2022/06/13 13:56:37;;;;;;;0.93;0.40;;;;;;;20.86;42.69;102535.06;5097709;27;98030;-35
2022/06/13 13:59:05;;;;;;;2.20;0.30;;;;;;;20.89;42.50;102527.41;5079504;27;96591;-35
2022/06/13 14:01:56;;;;;;;1.58;0.43;;;;;;;20.90;42.74;102536.56;5078785;27;96828;-35
2022/06/13 14:04:37;;;;;;;2.20;0.73;;;;;;;20.68;41.59;102542.88;5078591;27;100829;-35
2022/06/13 14:07:36;;;;;;;1.10;0.30;;;;;;;20.66;41.45;102547.63;5079060;27;100737;-35
2022/06/13 14:10:04;;;;;;;1.92;0.52;;;;;;;20.55;43.00;102549.34;5079334;27;96574;-34
2022/06/13 14:12:29;;;;;;;4.18;1.10;;;;;;;20.61;42.01;102541.59;5079459;27;96849;-35
2022/06/13 14:15:00;;;;;;;2.60;0.60;;;;;;;20.68;42.61;102557.50;5097700;27;97413;-35
2022/06/13 14:17:48;;;;;;;1.85;0.40;;;;;;;20.49;42.49;102529.59;5097741;27;97693;-35
2022/06/13 14:20:26;;;;;;;4.35;0.57;;;;;;;20.31;42.95;102548.44;5078842;27;96504;-35
2022/06/13 14:23:04;;;;;;;1.52;0.65;;;;;;;20.32;43.39;102547.41;5098006;27;96544;-35
2022/06/13 14:25:33;;;;;;;3.20;0.60;;;;;;;20.35;43.44;102564.59;5097469;27;99441;-35
2022/06/13 14:28:04;;;;;;;3.13;0.52;;;;;;;20.26;43.24;102540.53;5097797;27;96692;-35
2022/06/13 14:36:04;;;;;;;1.40;0.45;;;;;;;20.30;42.35;102531.00;5097797;27;97039;-35
2022/06/13 14:38:53;;;;;;;2.53;0.30;;;;;;;20.30;41.78;102541.16;5078611;27;102618;-35
2022/06/13 14:41:35;;;;;;;3.10;0.30;;;;;;;20.21;42.96;102545.47;5096681;27;96848;-35
2022/06/13 14:44:16;;;;;;;0.65;0.20;;;;;;;20.12;42.64;102535.19;5078941;27;96706;-35
2022/06/13 14:47:12;;;;;;;2.25;0.60;;;;;;;20.16;42.52;102555.94;5078052;27;99146;-35
2022/06/13 14:49:46;;;;;;;1.83;0.38;;;;;;;19.89;43.86;102537.75;5097054;27;97764;-35
2022/06/13 14:52:28;;;;;;;0.93;0.28;;;;;;;19.88;43.01;102547.00;5078852;27;96557;-35
2022/06/13 14:55:02;;;;;;;3.13;0.40;;;;;;;19.81;43.21;102550.34;5078812;27;96881;-35
2022/06/13 14:57:28;;;;;;;2.38;0.57;;;;;;;19.64;42.60;102543.25;5096727;27;99527;-35
2022/06/13 15:00:08;;;;;;;2.93;0.70;;;;;;;19.73;43.68;102540.78;5096638;27;98782;-35
2022/06/13 15:02:53;;;;;;;1.55;0.40;;;;;;;19.76;43.68;102544.28;5097246;27;96574;-35
2022/06/13 15:05:20;;;;;;;3.47;0.45;;;;;;;19.87;43.82;102539.75;5096618;27;96819;-35
2022/06/13 15:08:11;;;;;;;3.33;0.50;;;;;;;19.78;43.78;102534.03;5078091;27;101051;-34
2022/06/13 15:10:44;;;;;;;1.70;0.88;;;;;;;19.78;43.03;102537.66;5078301;27;98869;-35
2022/06/13 15:13:13;;;;;;;1.08;0.60;;;;;;;19.74;43.31;102527.91;5077781;27;96573;-35
2022/06/13 15:15:39;;;;;;;3.72;0.57;;;;;;;19.76;43.36;102542.44;5078374;27;96814;-35
2022/06/13 15:18:06;;;;;;;2.00;0.43;;;;;;;19.55;42.27;102522.84;5077879;27;100899;-35
2022/06/13 15:20:43;;;;;;;4.22;0.77;;;;;;;19.58;43.23;102525.34;5077810;27;100766;-35
2022/06/13 15:23:13;;;;;;;4.18;0.88;;;;;;;19.57;43.21;102522.72;5097475;27;96563;-35
2022/06/13 15:25:48;;;;;;;3.20;0.50;;;;;;;19.56;42.84;102519.09;5078303;27;96829;-35
2022/06/13 15:28:17;;;;;;;2.25;0.55;;;;;;;19.55;43.23;102519.22;5096608;27;97941;-35
2022/06/13 15:30:45;;;;;;;2.38;0.50;;;;;;;19.47;43.38;102517.00;5077446;27;100737;-35
2022/06/13 15:33:22;;;;;;;1.33;0.68;;;;;;;19.44;43.51;102529.09;5078007;27;96635;-35
2022/06/13 15:35:47;;;;;;;1.95;0.63;;;;;;;19.41;43.66;102526.59;5096856;27;96533;-35
2022/06/13 15:38:17;;;;;;;1.60;0.43;;;;;;;19.35;42.56;102513.28;5095508;27;97555;-35
2022/06/13 15:40:50;;;;;;;0.88;0.43;;;;;;;19.29;43.51;102505.50;5077709;27;101041;-35
2022/06/13 15:43:29;;;;;;;1.63;0.47;;;;;;;19.40;43.70;102524.84;5077782;27;96593;-35
2022/06/13 15:45:56;;;;;;;1.63;0.50;;;;;;;19.40;43.51;102519.34;5096439;27;96706;-35
2022/06/13 15:48:22;;;;;;;2.75;0.60;;;;;;;19.38;43.49;102521.31;5077439;27;99258;-35
2022/06/13 15:50:47;;;;;;;3.83;0.77;;;;;;;19.30;44.21;102527.34;5077584;27;100852;-34
2022/06/13 15:53:25;;;;;;;2.63;0.28;;;;;;;19.18;43.30;102519.13;5096490;27;96564;-35
2022/06/13 15:55:51;;;;;;;1.77;0.65;;;;;;;19.16;43.72;102519.22;5077971;27;96914;-35
2022/06/13 15:58:27;;;;;;;1.15;0.30;;;;;;;19.12;44.17;102520.44;5077290;27;100818;-35
2022/06/13 16:00:54;;;;;;;1.80;0.70;;;;;;;19.03;44.18;102515.59;5077640;27;100678;-35
2022/06/13 16:03:23;;;;;;;1.15;0.57;;;;;;;19.03;44.43;102516.47;5095684;27;96472;-35
2022/06/13 16:06:01;;;;;;;4.57;0.77;;;;;;;19.00;43.81;102527.69;5077539;27;96830;-34
2022/06/13 16:08:29;;;;;;;3.13;0.80;;;;;;;18.96;44.31;102523.38;5095551;27;99473;-35
2022/06/13 16:10:57;;;;;;;4.28;0.60;;;;;;;18.93;44.77;102520.00;5077069;27;101049;-35
2022/06/13 16:13:30;;;;;;;3.97;1.00;;;;;;;18.89;44.30;102519.31;5077140;27;96778;-34
2022/06/13 16:15:58;;;;;;;2.03;0.70;;;;;;;18.82;43.83;102529.84;5097632;27;96401;-35
2022/06/13 16:18:30;;;;;;;7.03;0.73;;;;;;;18.76;44.73;102519.31;5080826;27;101241;-35
2022/06/13 16:20:56;;;;;;;2.95;0.60;;;;;;;18.73;44.42;102524.06;5081078;27;100584;-35
2022/06/13 16:23:23;;;;;;;3.38;0.55;;;;;;;18.75;44.51;102533.09;5099817;27;96658;-35
2022/06/13 16:25:49;;;;;;;0.50;0.40;;;;;;;18.75;44.31;102519.34;5081090;27;96845;-34
2022/06/13 16:28:18;;;;;;;7.75;0.77;;;;;;;18.71;44.76;102517.81;5080164;27;100014;-35
2022/06/13 16:30:47;;;;;;;2.40;0.47;;;;;;;18.68;44.72;102527.13;5076584;27;100767;-35
2022/06/13 16:33:16;;;;;;;3.03;0.85;;;;;;;18.64;44.75;102507.28;5077633;27;96512;-35
2022/06/13 16:35:51;;;;;;;3.63;0.60;;;;;;;18.72;45.38;102517.72;5077615;27;96918;-34
2022/06/13 16:38:17;;;;;;;2.42;0.70;;;;;;;18.60;45.43;102522.19;5077017;27;101018;-34
2022/06/13 16:40:45;;;;;;;1.13;0.50;;;;;;;18.67;45.75;102517.16;5077041;27;100955;-34
2022/06/13 16:43:29;;;;;;;3.70;0.57;;;;;;;18.68;45.29;102521.66;5077340;27;96652;-34
2022/06/13 16:46:01;;;;;;;3.58;0.63;;;;;;;18.60;45.50;102513.06;5077639;27;96836;-35
2022/06/13 16:48:27;;;;;;;2.78;1.10;;;;;;;18.56;45.42;102519.75;5076858;27;101004;-35
2022/06/13 16:51:07;;;;;;;2.45;0.40;;;;;;;18.56;45.34;102525.25;5078120;27;99178;-35
2022/06/13 16:53:33;;;;;;;3.83;0.63;;;;;;;18.59;45.89;102517.69;5076904;27;96783;-35
2022/06/13 16:55:58;;;;;;;0.88;0.50;;;;;;;18.56;45.86;102512.38;5077322;27;96872;-34
2022/06/13 16:58:31;;;;;;;2.47;0.63;;;;;;;18.61;46.24;102523.06;5078137;27;97979;-34
2022/06/13 17:01:09;;;;;;;0.63;0.25;;;;;;;18.50;44.98;102526.56;5077062;27;101264;-34
2022/06/13 17:04:04;;;;;;;1.00;0.40;;;;;;;18.43;45.04;102530.69;5077143;27;96635;-35
2022/06/13 17:06:34;;;;;;;3.80;0.68;;;;;;;18.38;45.26;102519.16;5060274;27;97038;-35
2022/06/13 17:09:02;;;;;;;2.38;0.75;;;;;;;18.31;45.57;102517.81;5077875;27;98027;-35
2022/06/13 17:11:57;;;;;;;0.98;0.40;;;;;;;18.28;45.37;102523.50;5078324;27;99338;-34
2022/06/13 17:14:34;;;;;;;3.13;0.50;;;;;;;18.28;45.86;102528.97;5078249;27;96645;-34
2022/06/13 17:17:09;;;;;;;4.38;0.75;;;;;;;18.26;46.14;102512.66;5078287;27;96842;-35
2022/06/13 17:19:36;;;;;;;2.25;0.35;;;;;;;18.17;46.42;102516.00;5075983;27;100855;-35
2022/06/13 17:22:03;;;;;;;4.13;0.60;;;;;;;18.13;45.55;102519.91;5076334;27;101154;-34
2022/06/13 17:24:28;;;;;;;1.30;0.77;;;;;;;18.16;45.93;102517.88;5078235;27;96681;-35
2022/06/13 17:32:24;;;;;;;3.15;0.68;;;;;;;17.96;45.17;102515.56;5078053;27;97559;-34
2022/06/13 17:34:50;;;;;;;1.35;0.32;;;;;;;17.95;44.80;102519.31;5076742;27;96820;-35
2022/06/13 17:37:15;;;;;;;0.98;0.40;;;;;;;17.85;45.65;102518.13;5078210;27;96846;-34
2022/06/13 17:39:41;;;;;;;3.78;0.35;;;;;;;17.89;44.98;102514.22;5076033;27;100854;-34
2022/06/13 17:42:11;;;;;;;1.48;0.55;;;;;;;17.86;45.16;102514.41;5077318;27;99856;-35
2022/06/13 17:44:38;;;;;;;1.80;0.45;;;;;;;17.83;45.07;102519.13;5075809;27;96562;-35
2022/06/13 17:47:06;;;;;;;0.20;0.10;;;;;;;17.72;44.66;102507.94;5076369;27;96820;-35
2022/06/13 17:49:32;;;;;;;0.73;0.30;;;;;;;17.79;44.38;102520.25;5075996;27;100843;-34